Latest Coastal Weather Observations for Coolangatta

IDQ60701

Issued at 9:42 am EST Tuesday 22 August 2017 (issued every 10 minutes, with the page automatically refreshed every 10 minutes)

About coastal observations | Map of coastal stations | Coastal observations for QLD | Marine services | Other Formats
Station Details ID: 040717 Name: COOLANGATTA Lat: -28.17 Lon: 153.51 Height: 4.0 m
Data from the previous 72 hours. | See also: Recent months at Coolangatta
Date/Time
EST
Temp
°C
Wind Pressure Rain since
9am
mm
Weather Cloud Vis
km
Sea
Height
m
Swell
Dir  Spd
kts
Gust
kts
hPa Trend Height
m
Period
s
Dir
22/09:30am 20.9 N 12 16 1019.6 - 0.0 - Partly cloudy 10 - - - -
22/09:00am 20.4 NNW 9 13 1019.7 - 0.0 - Mostly cloudy 10 - - - -
22/08:30am 19.8 NNW 10 16 1019.7 - 0.0 - - 10 - - - -
22/08:00am 19.6 NW 10 15 1019.6 - 0.0 - - 10 - - - -
22/07:30am 18.3 NW 10 14 1019.3 - 0.0 - - 10 - - - -
22/07:00am 17.2 NW 8 12 1018.8 - 0.0 - - 10 - - - -
22/06:30am 16.7 NW 8 11 1018.6 - 0.0 - - 10 - - - -
22/06:00am 16.6 WNW 8 11 1018.6 - 0.0 - Cloudy 10 - - - -
22/05:30am 16.7 NW 8 11 1018.3 - 0.0 - - 10 - - - -
22/05:00am 16.7 WNW 9 11 1018.6 - 0.0 - Partly cloudy 10 - - - -
22/04:30am 16.5 NW 7 11 1018.2 - 0.0 - Partly cloudy 10 - - - -
22/04:00am 16.3 NW 6 8 1018.2 - 0.0 - Partly cloudy 10 - - - -
22/03:30am 16.4 NW 6 8 1018.1 - 0.0 - Partly cloudy 10 - - - -
22/03:00am 16.0 NW 5 7 1018.2 - 0.0 - Cloudy 10 - - - -
22/02:30am 16.0 NW 5 8 1018.3 - 0.0 - Partly cloudy 10 - - - -
22/02:00am 15.8 CALM 0 0 1018.4 - 0.0 - Partly cloudy 10 - - - -
22/01:30am 16.1 CALM 0 0 1018.9 - 0.0 - Partly cloudy 10 - - - -
22/01:00am 16.3 W 4 5 1018.8 - 0.0 - Partly cloudy 10 - - - -
22/12:30am 16.1 W 6 7 1018.9 - 0.0 - Partly cloudy 10 - - - -
22/12:00am 16.7 NW 4 5 1018.4 - 0.0 Showers Cloudy 10 - - - -
 
Date/Time
EST
Temp
°C
Wind Pressure Rain since
9am
mm
Weather Cloud Vis
km
Sea
Height
m
Swell
Dir  Spd
kts
Gust
kts
hPa Trend Height
m
Period
s
Dir
21/11:30pm 17.2 WNW 8 11 1019.4 - 0.0 - Partly cloudy 10 - - - -
21/11:00pm 15.6 SW 2 4 1019.4 - 0.0 - Partly cloudy 10 - - - -
21/10:30pm 15.7 SW 3 4 1019.4 - 0.0 - Cloudy 10 - - - -
21/10:00pm 15.4 CALM 0 0 1019.0 - 0.0 - Partly cloudy 10 - - - -
21/09:30pm 15.9 W 1 4 1019.2 - 0.0 - Partly cloudy 10 - - - -
21/09:00pm 16.3 W 3 4 1019.3 - 0.0 - Cloudy 10 - - - -
21/08:30pm 16.6 WSW 5 7 1019.5 - 0.0 - Partly cloudy 10 - - - -
21/08:00pm 17.1 W 5 7 1019.2 - 0.0 - Partly cloudy 10 - - - -
21/07:30pm 18.4 NNW 12 16 1019.1 - 0.0 - Partly cloudy 10 - - - -
21/07:00pm 18.7 N 12 15 1018.5 - 0.0 - Partly cloudy 10 - - - -
21/06:30pm 18.4 N 10 14 1018.5 - 0.0 - Partly cloudy 10 - - - -
21/06:00pm 18.5 N 12 15 1018.3 - 0.0 - Cloudy 10 - - - -
21/05:30pm 18.5 N 12 16 1018.3 - 0.0 - Partly cloudy 10 - - - -
21/05:00pm 18.6 N 12 16 1018.0 - 0.0 - Partly cloudy 10 - - - -
21/04:30pm 18.6 NNE 11 13 1017.7 - 0.0 - - 10 - - - -
21/04:00pm 18.6 NNE 10 13 1017.6 - 0.0 - - 10 - - - -
21/03:30pm 18.8 NE 10 13 1018.2 - 0.0 - - 10 - - - -
21/03:00pm 18.7 NE 9 12 1018.3 - 0.0 - Mostly cloudy 10 - - - -
21/02:30pm 19.5 NE 10 12 1018.5 - 0.0 - - 10 - - - -
21/02:00pm 18.8 NE 10 13 1018.9 - 0.0 - - 10 - - - -
21/01:30pm 19.0 ENE 10 12 1019.0 - 0.0 - - 10 - - - -
21/01:00pm 19.5 ENE 9 11 1019.6 - 0.0 - - 10 - - - -
21/12:30pm 19.6 NE 10 13 1019.9 - 0.0 - - 10 - - - -
21/12:00pm 19.5 NE 10 13 1020.6 - 0.0 - Cloudy 10 - - - -
21/11:30am 19.9 NE 10 13 1020.8 - 0.0 - Partly cloudy 10 - - - -
21/11:00am 20.2 E 4 8 1021.4 - 0.0 - - 10 - - - -
21/10:30am 18.8 SSE 5 8 1021.8 - 0.0 - - 10 - - - -
21/10:00am 18.7 SSE 7 10 1021.8 - 0.0 - - 10 - - - -
21/09:30am 19.0 S 8 12 1021.8 - 0.0 - - 10 - - - -
21/09:00am 18.1 SSW 7 11 1021.7 - 0.0 - Partly cloudy 10 - - - -
21/08:30am 17.6 SW 7 9 1021.5 - 0.0 - - 10 - - - -
21/08:00am 16.3 SSW 6 9 1021.4 - 0.0 - - 10 - - - -
21/07:30am 15.2 S 3 5 1021.2 - 0.0 - - 10 - - - -
21/07:00am 13.7 SW 6 8 1021.0 - 0.0 - - 10 - - - -
21/06:30am 12.3 SSW 4 6 1020.6 - 0.0 - - 10 - - - -
21/06:00am 13.4 SW 9 13 1020.3 - 0.0 - - 10 - - - -
21/05:30am 12.2 SSW 6 8 1019.8 - 0.0 - - 10 - - - -
21/05:00am 12.5 SSW 7 10 1019.6 - 0.0 - - 10 - - - -
21/04:30am 12.1 SSW 6 8 1019.3 - 0.0 - - 10 - - - -
21/04:00am 12.1 SSW 7 9 1019.3 - 0.0 - - 10 - - - -
21/03:30am 12.1 SSW 6 8 1019.3 - 0.0 - - 10 - - - -
21/03:00am 12.6 SSW 7 9 1019.4 - 0.0 - - 10 - - - -
21/02:30am 11.5 S 5 7 1019.5 - 0.0 - - 10 - - - -
21/02:00am 12.8 SSW 7 9 1019.7 - 0.0 - - 10 - - - -
21/01:30am 12.3 SSW 5 7 1020.1 - 0.0 - - 10 - - - -
21/01:00am 12.9 SW 5 7 1020.2 - 0.0 - - 10 - - - -
21/12:30am 13.5 SW 7 11 1020.5 - 0.0 - - 10 - - - -
21/12:00am 13.5 SSW 7 11 1020.5 - 0.0 - - 10 - - - -
 
Date/Time
EST
Temp
°C
Wind Pressure Rain since
9am
mm
Weather Cloud Vis
km
Sea
Height
m
Swell
Dir  Spd
kts
Gust
kts
hPa Trend Height
m
Period
s
Dir
20/11:30pm 13.9 SW 8 12 1020.7 - 0.0 - - 10 - - - -
20/11:00pm 14.1 SSW 10 15 1020.6 - 0.0 - - 10 - - - -
20/10:30pm 13.7 S 9 14 1020.4 - 0.0 - - 10 - - - -
20/10:00pm 13.9 S 8 13 1020.4 - 0.0 - - 10 - - - -
20/09:30pm 14.4 SW 9 13 1020.7 - 0.0 - - 10 - - - -
20/09:00pm 14.5 SSW 9 14 1020.4 - 0.0 - - 10 - - - -
20/08:30pm 14.4 SSW 8 11 1020.4 - 0.0 - - 10 - - - -
20/08:00pm 14.3 SSW 7 10 1020.3 - 0.0 - - 10 - - - -
20/07:30pm 14.1 SW 6 8 1020.4 - 0.0 - - 10 - - - -
20/07:00pm 14.3 SSW 6 8 1020.0 - 0.0 - - 10 - - - -
20/06:30pm 14.4 SSW 6 9 1019.9 - 0.0 - - 10 - - - -
20/06:00pm 14.9 S 8 11 1019.5 - 0.0 - - 10 - - - -
20/05:30pm 15.7 S 9 13 1019.3 - 0.0 - - 10 - - - -
20/05:00pm 16.6 SSE 11 14 1019.0 - 0.0 - - 10 - - - -
20/04:30pm 17.0 SSE 14 19 1018.7 - 0.0 - - 10 - - - -
20/04:00pm 17.9 SSE 14 21 1018.3 - 0.0 - Partly cloudy 10 - - - -
20/03:30pm 18.5 SE 15 21 1017.9 - 0.0 - - 10 - - - -
20/03:00pm 19.0 SE 12 18 1017.9 - 0.0 - - 10 - - - -
20/02:30pm 18.7 SSE 12 20 1017.8 - 0.0 - Partly cloudy 10 - - - -
20/02:00pm 19.5 SSE 13 20 1017.9 - 0.0 - - 10 - - - -
20/01:30pm 18.8 S 15 22 1018.2 - 0.0 - - 10 - - - -
20/01:00pm 18.8 S 16 21 1018.4 - 0.0 - - 10 - - - -
20/12:30pm 18.9 SSW 12 17 1018.5 - 0.0 - - 10 - - - -
20/12:00pm 18.6 SSW 10 16 1018.9 - 0.0 - - 10 - - - -
20/11:30am 17.7 SSW 13 20 1019.4 - 0.0 - - 10 - - - -
20/11:00am 17.3 SW 10 16 1019.7 - 0.0 - - 10 - - - -
20/10:30am 17.2 SSW 12 17 1019.9 - 0.0 - - 10 - - - -
20/10:00am 16.3 SSW 13 19 1019.9 - 0.0 - - 10 - - - -
20/09:30am 15.8 S 13 20 1020.1 - 0.0 - - 10 - - - -
20/09:00am 15.2 SSW 14 23 1020.1 - 0.0 - - 10 - - - -
20/08:30am 14.6 SSW 12 21 1020.0 - 0.0 - - 10 - - - -
20/08:00am 14.0 SSW 9 15 1019.7 - 0.0 - - 10 - - - -
20/07:30am 13.3 SSW 9 16 1019.5 - 0.0 - - 10 - - - -
20/07:00am 12.6 SSW 13 20 1019.1 - 0.0 - - 10 - - - -
20/06:30am 12.1 SSW 11 19 1018.7 - 0.0 - - 10 - - - -
20/06:00am 11.2 S 8 11 1018.4 - 0.0 - - 10 - - - -
20/05:30am 11.4 SSW 8 11 1018.1 - 0.0 - - 10 - - - -
20/05:00am 11.6 SSW 9 13 1017.8 - 0.0 - - 10 - - - -
20/04:30am 11.8 SSW 8 13 1017.5 - 0.0 - - 10 - - - -
20/04:00am 12.3 SSW 10 16 1017.2 - 0.0 - - 10 - - - -
20/03:30am 12.2 SSW 10 13 1017.0 - 0.0 - - 10 - - - -
20/03:00am 11.9 SSW 9 12 1017.2 - 0.0 - - 10 - - - -
20/02:30am 11.3 SW 6 9 1017.1 - 0.0 - - 10 - - - -
20/02:00am 11.6 SW 6 10 1017.2 - 0.0 - - 10 - - - -
20/01:30am 12.3 SW 7 11 1017.3 - 0.0 - - 10 - - - -
20/01:00am 12.6 SW 8 12 1017.5 - 0.0 - - 10 - - - -
20/12:30am 12.8 SW 9 12 1017.5 - 0.0 - - 10 - - - -
20/12:00am 12.0 SW 6 8 1017.6 - 0.0 - - 10 - - - -
 
Date/Time
EST
Temp
°C
Wind Pressure Rain since
9am
mm
Weather Cloud Vis
km
Sea
Height
m
Swell
Dir  Spd
kts
Gust
kts
hPa Trend Height
m
Period
s
Dir
19/11:30pm 12.4 SW 6 7 1017.7 - 0.0 - - 10 - - - -
19/11:00pm 13.4 SSW 8 13 1017.6 - 0.0 - - 10 - - - -
19/10:30pm 13.5 SW 7 10 1017.6 - 0.0 - - 10 - - - -
19/10:00pm 13.5 SW 7 10 1017.6 - 0.0 - - 10 - - - -
19/09:30pm 14.0 SW 8 15 1017.4 - 0.0 - - 10 - - - -
19/09:00pm 10.8 WSW 6 9 1017.2 - 0.0 - - 10 - - - -
19/08:30pm 9.3 SSW 3 4 1017.0 - 0.0 - - 10 - - - -
19/08:00pm 10.4 WSW 4 5 1016.5 - 0.0 - - 10 - - - -
19/07:30pm 12.6 SW 4 7 1016.2 - 0.0 - - 10 - - - -
19/07:00pm 14.4 S 7 10 1015.8 - 0.0 - - 10 - - - -
19/06:30pm 13.7 S 7 9 1015.5 - 0.0 - - 10 - - - -
19/06:00pm 15.1 SSW 7 11 1014.9 - 0.0 - - 10 - - - -
19/05:30pm 16.8 SW 8 11 1014.2 - 0.0 - - 10 - - - -
19/05:00pm 18.1 SW 12 17 1013.5 - 0.0 - - 10 - - - -
19/04:30pm 18.9 SW 9 12 1013.1 - 0.0 - - 10 - - - -
19/04:00pm 19.4 SW 11 18 1012.7 - 0.0 - - 10 - - - -
19/03:30pm 19.9 SW 10 17 1012.5 - 0.0 - - 10 - - - -
19/03:04pm 19.6 SW 15 27 1012.3 - 0.0 - - 10 - - - -
19/03:00pm 20.1 SSW 14 23 1012.3 - 0.0 - - 10 - - - -
19/02:30pm 20.1 SW 14 21 1012.2 - 0.0 - - 10 - - - -
19/02:24pm 19.9 SW 15 25 1012.2 - 0.0 - - 10 - - - -
19/02:00pm 20.2 SW 10 21 1012.1 - 0.0 - - 10 - - - -
19/01:30pm 19.8 SSW 12 20 1012.3 - 0.0 - - 10 - - - -
19/01:00pm 20.0 SW 15 23 1012.6 - 0.0 - - 10 - - - -
19/12:43pm 19.4 SW 15 25 1012.9 - 0.0 - - 10 - - - -
19/12:30pm 19.3 SSW 15 24 1013.0 - 0.0 - - 10 - - - -
19/12:00pm 18.7 SW 14 26 1013.5 - 0.0 - - 10 - - - -
19/11:59am 18.7 SW 14 26 1013.4 - 0.0 - - 10 - - - -
19/11:30am 18.2 SW 12 21 1013.9 - 0.0 - - 10 - - - -
19/11:00am 18.0 SW 12 17 1014.3 - 0.0 - - 10 - - - -
19/10:30am 17.7 SW 12 18 1014.8 - 0.0 - - 10 - - - -
19/10:00am 17.3 WSW 12 18 1015.2 - 0.0 - - 10 - - - -

Other Formats:

Comma delimited format used in spreadsheet applications
http://www.bom.gov.au/fwo/IDQ60701/IDQ60701.94592.axf

JavaScript Object Notation format (JSON) in row-major order
http://www.bom.gov.au/fwo/IDQ60701/IDQ60701.94592.json